Gardiner, Oregon
Current Conditions -  °F | °C
As of 6:35 AM on Sunday 21 Dec 2014 (Local Time) from KOTH Reporting Station
Overcast Overcast  
Wind Chill: 57°   Ceiling: 400
Heat Index: 57°   Visibility: 3mi
Dew Point: 55°   Wind: 14mph
Humidity: 94%   Direction: 250°WSW
Pressure: 30.09"   Gusts: NA
Location:  43.73°N, 124.11°W
Report Text: KOTH 211435Z 25012KT 3SM OVC004 14/13 A3009 RMK AO1 P0008
Loading
Personal Weather Stations






























Interactive Weather Map New forecast layout! Learn more

10-Day Weather Forecast

Advertisements
Track Severe Weather on mobile